Time;durP1;ratioP1;P1;durP2;ratioP2;P2;SDS_P1;SDS_P2;PMS_P1;PMS_P2;Temp;Humidity;BMP_temperature;BMP_pressure;BME280_temperature;BME280_humidity;BME280_pressure;Samples;Min_cycle;Max_cycle;Signal;HPM_P1;HPM_P2
2023/08/06 00:01:25;;;;;;;3.05;1.00;;;;;;;;;;5143118;27;20043;-76
2023/08/06 00:03:52;;;;;;;2.70;1.10;;;;;;;;;;5142888;27;20042;-75
2023/08/06 00:06:18;;;;;;;3.90;1.35;;;;;;;;;;5142306;27;20096;-75
2023/08/06 00:08:45;;;;;;;3.47;1.20;;;;;;;;;;5142524;27;20043;-76
2023/08/06 00:11:12;;;;;;;4.03;1.30;;;;;;;;;;5142878;27;20126;-76
2023/08/06 00:13:39;;;;;;;3.05;1.17;;;;;;;;;;5142949;27;20114;-76
2023/08/06 00:16:10;;;;;;;1.88;1.13;;;;;;;;;;5143606;27;20053;-76
2023/08/06 00:18:37;;;;;;;2.33;1.15;;;;;;;;;;5142761;27;20043;-76
2023/08/06 00:21:04;;;;;;;3.35;1.50;;;;;;;;;;5143242;27;20043;-76
2023/08/06 00:23:31;;;;;;;4.70;1.17;;;;;;;;;;5143077;27;20118;-76
2023/08/06 00:25:57;;;;;;;4.82;1.25;;;;;;;;;;5142567;27;20236;-76
2023/08/06 00:28:24;;;;;;;4.05;1.20;;;;;;;;;;5142657;27;20490;-76
2023/08/06 00:30:55;;;;;;;3.55;1.42;;;;;;;;;;5142563;27;20067;-76
2023/08/06 00:33:24;;;;;;;4.22;1.20;;;;;;;;;;5142298;27;20145;-76
2023/08/06 00:35:51;;;;;;;3.50;1.48;;;;;;;;;;5124379;27;20043;-74
2023/08/06 00:38:18;;;;;;;4.18;1.38;;;;;;;;;;5142797;27;20050;-76
2023/08/06 00:40:45;;;;;;;4.22;1.40;;;;;;;;;;5143380;27;20270;-76
2023/08/06 00:43:11;;;;;;;3.75;1.33;;;;;;;;;;5143076;27;20050;-76
2023/08/06 00:45:38;;;;;;;4.35;1.40;;;;;;;;;;5143332;27;20051;-75
2023/08/06 00:48:07;;;;;;;4.78;1.35;;;;;;;;;;5142999;27;20043;-75
2023/08/06 00:50:33;;;;;;;3.40;1.35;;;;;;;;;;5143273;27;20100;-74
2023/08/06 00:53:01;;;;;;;5.00;1.30;;;;;;;;;;5142790;27;20067;-76
2023/08/06 00:55:29;;;;;;;5.15;1.33;;;;;;;;;;5143479;27;20043;-75
2023/08/06 00:57:56;;;;;;;4.40;1.33;;;;;;;;;;5142489;27;20383;-76
2023/08/06 01:00:24;;;;;;;2.58;1.20;;;;;;;;;;5141906;27;20117;-75
2023/08/06 01:02:52;;;;;;;2.72;1.20;;;;;;;;;;5141917;27;20073;-76
2023/08/06 01:05:20;;;;;;;4.38;1.38;;;;;;;;;;5140977;27;20320;-76
2023/08/06 01:08:08;;;;;;;2.47;1.17;;;;;;;;;;5141270;27;20339;-76
2023/08/06 01:10:52;;;;;;;6.45;1.17;;;;;;;;;;5141394;27;20114;-76
2023/08/06 01:13:32;;;;;;;4.45;1.20;;;;;;;;;;5141941;27;20051;-76
2023/08/06 01:16:01;;;;;;;3.78;1.15;;;;;;;;;;5141579;27;20047;-76
2023/08/06 01:18:28;;;;;;;2.95;1.10;;;;;;;;;;5138689;27;20047;-76
2023/08/06 01:20:56;;;;;;;4.35;1.17;;;;;;;;;;5140966;27;20407;-74
2023/08/06 01:23:24;;;;;;;5.70;1.02;;;;;;;;;;5141713;27;20047;-76
2023/08/06 01:26:25;;;;;;;3.40;1.10;;;;;;;;;;5141000;27;20074;-76
2023/08/06 01:28:56;;;;;;;;;;;;;;;;;;5119212;28;20051;-75
2023/08/06 01:31:26;;;;;;;;;;;;;;;;;;5141480;27;19915;-76
2023/08/06 01:33:54;;;;;;;6.10;1.30;;;;;;;;;;5138654;27;19923;-75
2023/08/06 01:36:21;;;;;;;9.13;1.25;;;;;;;;;;5142180;27;20110;-76
2023/08/06 01:38:48;;;;;;;8.43;1.15;;;;;;;;;;5142010;27;20054;-75
2023/08/06 01:41:15;;;;;;;4.90;1.20;;;;;;;;;;5140501;27;20065;-77
2023/08/06 01:43:42;;;;;;;8.40;0.95;;;;;;;;;;5140199;27;20088;-76
2023/08/06 01:46:08;;;;;;;4.50;0.93;;;;;;;;;;5141990;27;20043;-76
2023/08/06 01:48:35;;;;;;;8.30;1.40;;;;;;;;;;5140522;27;20039;-76
2023/08/06 01:51:05;;;;;;;14.35;1.25;;;;;;;;;;5141575;27;20077;-75
2023/08/06 01:53:33;;;;;;;9.90;1.30;;;;;;;;;;5141870;27;20086;-75
2023/08/06 01:56:00;;;;;;;4.97;0.95;;;;;;;;;;5142274;27;20050;-76
2023/08/06 01:58:27;;;;;;;4.15;0.93;;;;;;;;;;5142290;27;20050;-76
2023/08/06 02:00:54;;;;;;;10.18;1.35;;;;;;;;;;5141974;27;20050;-76
2023/08/06 02:03:20;;;;;;;7.03;1.20;;;;;;;;;;5142123;28;20340;-76
2023/08/06 02:05:47;;;;;;;6.70;1.05;;;;;;;;;;5141884;27;20231;-76
2023/08/06 02:08:13;;;;;;;6.20;0.98;;;;;;;;;;5141324;27;20357;-75
2023/08/06 02:10:41;;;;;;;4.35;0.82;;;;;;;;;;5140968;27;20047;-76
2023/08/06 02:13:08;;;;;;;6.07;1.10;;;;;;;;;;5144829;27;20046;-75
2023/08/06 02:15:34;;;;;;;7.18;0.88;;;;;;;;;;5144667;27;20055;-76
2023/08/06 02:18:01;;;;;;;5.95;1.05;;;;;;;;;;5146140;27;20092;-76
2023/08/06 02:20:28;;;;;;;4.93;0.98;;;;;;;;;;5145934;27;20050;-76
2023/08/06 02:22:55;;;;;;;3.25;1.02;;;;;;;;;;5145998;27;20049;-76
2023/08/06 02:25:21;;;;;;;8.68;1.35;;;;;;;;;;5146042;27;20035;-76
2023/08/06 02:27:48;;;;;;;5.35;1.17;;;;;;;;;;5145400;27;20071;-76
2023/08/06 02:30:15;;;;;;;6.65;1.00;;;;;;;;;;5144741;27;20039;-76
2023/08/06 02:32:41;;;;;;;5.40;1.10;;;;;;;;;;5144703;27;20051;-76
2023/08/06 02:35:08;;;;;;;4.88;0.90;;;;;;;;;;5145131;27;20053;-76
2023/08/06 02:37:35;;;;;;;7.25;0.93;;;;;;;;;;5145399;27;20110;-76
2023/08/06 02:40:02;;;;;;;3.80;0.95;;;;;;;;;;5145036;27;20043;-76
2023/08/06 02:42:29;;;;;;;3.78;0.93;;;;;;;;;;5145046;27;20335;-76
2023/08/06 02:44:56;;;;;;;1.17;0.52;;;;;;;;;;5144346;27;20050;-76
2023/08/06 02:47:23;;;;;;;5.00;0.80;;;;;;;;;;5145420;27;20107;-75
2023/08/06 02:49:50;;;;;;;5.60;0.93;;;;;;;;;;5144622;27;20051;-76
2023/08/06 02:52:17;;;;;;;6.90;1.10;;;;;;;;;;5145559;27;20043;-75
2023/08/06 02:54:43;;;;;;;6.28;0.90;;;;;;;;;;5145408;27;20047;-76
2023/08/06 02:57:10;;;;;;;5.85;1.05;;;;;;;;;;5145574;27;20046;-76
2023/08/06 02:59:37;;;;;;;3.95;0.75;;;;;;;;;;5144872;27;20243;-76
2023/08/06 03:02:04;;;;;;;4.07;0.73;;;;;;;;;;5144280;27;20102;-76
2023/08/06 03:04:30;;;;;;;5.47;0.95;;;;;;;;;;5144334;27;20050;-76
2023/08/06 03:06:57;;;;;;;5.93;0.90;;;;;;;;;;5143854;27;20084;-76
2023/08/06 03:09:24;;;;;;;5.43;1.00;;;;;;;;;;5144835;27;20042;-76
2023/08/06 03:11:50;;;;;;;10.25;0.95;;;;;;;;;;5145130;27;20051;-75
2023/08/06 03:14:17;;;;;;;4.38;0.77;;;;;;;;;;5145345;27;20071;-76
2023/08/06 03:16:44;;;;;;;8.50;1.13;;;;;;;;;;5144952;27;20050;-76
2023/08/06 03:19:11;;;;;;;5.80;0.80;;;;;;;;;;5144796;27;20043;-76
2023/08/06 03:21:38;;;;;;;6.97;0.90;;;;;;;;;;5143834;27;20061;-76
2023/08/06 03:24:04;;;;;;;5.68;1.10;;;;;;;;;;5144444;27;20125;-75
2023/08/06 03:26:31;;;;;;;7.28;0.77;;;;;;;;;;5144301;27;20039;-76
2023/08/06 03:28:58;;;;;;;4.93;0.82;;;;;;;;;;5140624;27;20049;-76
2023/08/06 03:31:24;;;;;;;5.75;1.17;;;;;;;;;;5138947;27;20043;-76
2023/08/06 03:33:51;;;;;;;5.28;1.10;;;;;;;;;;5141147;27;20070;-76
2023/08/06 03:36:18;;;;;;;6.53;1.10;;;;;;;;;;5139031;27;20047;-75
2023/08/06 03:38:44;;;;;;;7.75;1.02;;;;;;;;;;5140097;27;20108;-75
2023/08/06 03:41:11;;;;;;;5.05;0.90;;;;;;;;;;5133328;27;20047;-76
2023/08/06 03:43:38;;;;;;;7.88;1.10;;;;;;;;;;5133822;27;20122;-76
2023/08/06 03:46:04;;;;;;;5.45;1.00;;;;;;;;;;5143626;27;20066;-75
2023/08/06 03:48:31;;;;;;;5.13;0.82;;;;;;;;;;5143806;27;20107;-75
2023/08/06 03:51:00;;;;;;;7.38;1.13;;;;;;;;;;5144123;27;20320;-76
2023/08/06 03:53:27;;;;;;;6.22;1.27;;;;;;;;;;5144298;27;20043;-76
2023/08/06 03:55:55;;;;;;;8.93;0.90;;;;;;;;;;5143928;27;20055;-76
2023/08/06 03:58:22;;;;;;;5.15;1.02;;;;;;;;;;5142828;27;20106;-76
2023/08/06 04:00:57;;;;;;;9.80;1.20;;;;;;;;;;5141971;27;20299;-76
2023/08/06 04:03:23;;;;;;;6.65;1.27;;;;;;;;;;5142521;27;20043;-76
2023/08/06 04:05:54;;;;;;;6.88;0.80;;;;;;;;;;5139310;27;20099;-76
2023/08/06 04:08:20;;;;;;;7.07;0.80;;;;;;;;;;5143689;27;20165;-76
2023/08/06 04:10:53;;;;;;;7.80;1.00;;;;;;;;;;5143784;27;20043;-76
2023/08/06 04:13:20;;;;;;;9.38;1.02;;;;;;;;;;5143929;27;20249;-75
2023/08/06 04:15:47;;;;;;;6.80;1.20;;;;;;;;;;5143703;27;20058;-76
2023/08/06 04:18:14;;;;;;;10.68;1.00;;;;;;;;;;5143838;27;20043;-76
2023/08/06 04:20:49;;;;;;;6.05;0.80;;;;;;;;;;5139231;27;20122;-76
2023/08/06 04:23:15;;;;;;;7.90;1.02;;;;;;;;;;5143641;27;20075;-75
2023/08/06 04:25:42;;;;;;;6.95;1.05;;;;;;;;;;5143273;27;20043;-76
2023/08/06 04:28:09;;;;;;;6.82;1.10;;;;;;;;;;5142914;27;20492;-76
2023/08/06 04:30:37;;;;;;;7.15;0.88;;;;;;;;;;5142755;27;20038;-75
2023/08/06 04:33:04;;;;;;;4.63;0.98;;;;;;;;;;5142324;27;20084;-76
2023/08/06 04:35:31;;;;;;;9.55;1.00;;;;;;;;;;5142052;27;20047;-76
2023/08/06 04:37:57;;;;;;;7.95;1.08;;;;;;;;;;5141966;27;20050;-76
2023/08/06 04:40:24;;;;;;;7.50;1.33;;;;;;;;;;5142010;27;20061;-76
2023/08/06 04:42:51;;;;;;;3.25;0.90;;;;;;;;;;5142491;27;20053;-76
2023/08/06 04:45:17;;;;;;;8.82;1.20;;;;;;;;;;5142678;27;20368;-76
2023/08/06 04:47:44;;;;;;;4.00;0.98;;;;;;;;;;5142312;27;20494;-76
2023/08/06 04:50:11;;;;;;;9.73;1.25;;;;;;;;;;5142696;27;20047;-76
2023/08/06 04:52:37;;;;;;;8.45;1.25;;;;;;;;;;5142419;27;20239;-76
2023/08/06 04:55:06;;;;;;;7.90;1.10;;;;;;;;;;5142564;27;20043;-76
2023/08/06 04:57:33;;;;;;;4.63;0.77;;;;;;;;;;5124109;27;20039;-76
2023/08/06 04:59:59;;;;;;;5.53;0.85;;;;;;;;;;5141354;27;20079;-76
2023/08/06 05:02:26;;;;;;;4.88;1.00;;;;;;;;;;5142973;27;20104;-76
2023/08/06 05:04:53;;;;;;;4.95;0.77;;;;;;;;;;5142960;27;20043;-75
2023/08/06 05:07:19;;;;;;;5.63;1.10;;;;;;;;;;5142749;27;20051;-75
2023/08/06 05:09:46;;;;;;;6.70;1.00;;;;;;;;;;5135521;27;20327;-76
2023/08/06 05:12:13;;;;;;;5.63;1.10;;;;;;;;;;5132070;27;20366;-76
2023/08/06 05:14:40;;;;;;;9.60;1.02;;;;;;;;;;5130911;27;20051;-75
2023/08/06 05:17:06;;;;;;;6.50;0.90;;;;;;;;;;5114839;27;20184;-76
2023/08/06 05:19:33;;;;;;;7.22;1.08;;;;;;;;;;5131443;27;20389;-76
2023/08/06 05:22:01;;;;;;;6.00;0.90;;;;;;;;;;5129716;27;20115;-75
2023/08/06 05:24:28;;;;;;;4.93;1.00;;;;;;;;;;5131207;27;20046;-75
2023/08/06 05:26:54;;;;;;;4.38;0.90;;;;;;;;;;5130569;27;20152;-76
2023/08/06 05:29:21;;;;;;;8.23;1.55;;;;;;;;;;5129014;27;20039;-76
2023/08/06 05:31:48;;;;;;;4.97;0.93;;;;;;;;;;5128938;27;20052;-76
2023/08/06 05:34:14;;;;;;;6.90;0.95;;;;;;;;;;5129907;27;20329;-76
2023/08/06 05:36:41;;;;;;;5.85;0.77;;;;;;;;;;5131928;27;20039;-76
2023/08/06 05:39:08;;;;;;;8.05;1.33;;;;;;;;;;5129919;27;20323;-76
2023/08/06 05:41:34;;;;;;;5.90;1.17;;;;;;;;;;5129751;27;20054;-76
2023/08/06 05:44:01;;;;;;;5.78;0.98;;;;;;;;;;5131743;27;20046;-76
2023/08/06 05:46:30;;;;;;;4.60;1.00;;;;;;;;;;5129335;27;20047;-76
2023/08/06 05:48:56;;;;;;;4.00;0.90;;;;;;;;;;5130236;27;20097;-76
2023/08/06 05:51:23;;;;;;;8.07;1.02;;;;;;;;;;5112333;27;20046;-76
2023/08/06 05:53:50;;;;;;;7.20;1.13;;;;;;;;;;5128598;27;20080;-76
2023/08/06 05:56:17;;;;;;;6.90;1.05;;;;;;;;;;5129273;27;20042;-76
2023/08/06 05:58:43;;;;;;;9.00;1.77;;;;;;;;;;5131471;27;20035;-76
2023/08/06 06:01:10;;;;;;;5.45;1.00;;;;;;;;;;5140527;27;20138;-76
2023/08/06 06:03:37;;;;;;;7.97;1.02;;;;;;;;;;5140715;28;20047;-75
2023/08/06 06:06:03;;;;;;;5.30;1.10;;;;;;;;;;5141813;27;20363;-76
2023/08/06 06:08:30;;;;;;;9.63;1.30;;;;;;;;;;5141845;28;20336;-75
2023/08/06 06:10:58;;;;;;;7.15;0.85;;;;;;;;;;5141961;28;20043;-76
2023/08/06 06:13:24;;;;;;;6.45;1.00;;;;;;;;;;5141963;28;20049;-76
2023/08/06 06:15:54;;;;;;;3.97;1.08;;;;;;;;;;5140656;27;20050;-76
2023/08/06 06:18:22;;;;;;;7.38;1.05;;;;;;;;;;5138135;28;20319;-74
2023/08/06 06:20:48;;;;;;;7.53;0.80;;;;;;;;;;5140651;28;20043;-74
2023/08/06 06:23:15;;;;;;;5.13;1.10;;;;;;;;;;5140242;27;20043;-74
2023/08/06 06:25:43;;;;;;;5.03;1.08;;;;;;;;;;5140330;28;20403;-74
2023/08/06 06:28:10;;;;;;;8.00;1.08;;;;;;;;;;5140666;28;20043;-74
2023/08/06 06:30:36;;;;;;;4.65;0.90;;;;;;;;;;5140795;27;20043;-75
2023/08/06 06:33:03;;;;;;;7.47;0.98;;;;;;;;;;5140859;28;20050;-74
2023/08/06 06:35:30;;;;;;;5.05;1.02;;;;;;;;;;5140599;28;20047;-74
2023/08/06 06:37:57;;;;;;;9.80;1.55;;;;;;;;;;5138186;28;20046;-74
2023/08/06 06:40:23;;;;;;;10.18;1.00;;;;;;;;;;5140673;28;20067;-74
2023/08/06 06:42:50;;;;;;;5.80;0.88;;;;;;;;;;5139884;28;20110;-75
2023/08/06 06:45:17;;;;;;;3.78;1.00;;;;;;;;;;5141018;28;20050;-74
2023/08/06 06:47:43;;;;;;;2.53;0.80;;;;;;;;;;5140752;27;20122;-74
2023/08/06 06:50:10;;;;;;;3.08;0.70;;;;;;;;;;5140641;28;20039;-74
2023/08/06 06:52:37;;;;;;;5.53;0.95;;;;;;;;;;5140183;28;20047;-75
2023/08/06 06:55:04;;;;;;;6.60;0.98;;;;;;;;;;5140293;28;20319;-74
2023/08/06 06:57:31;;;;;;;5.47;0.90;;;;;;;;;;5142469;27;20051;-74
2023/08/06 06:59:57;;;;;;;5.03;0.90;;;;;;;;;;5139824;27;20114;-74
2023/08/06 07:02:24;;;;;;;6.35;1.02;;;;;;;;;;5134309;27;20043;-74
2023/08/06 07:04:51;;;;;;;8.38;1.10;;;;;;;;;;5133560;27;20057;-74
2023/08/06 07:07:17;;;;;;;4.72;0.98;;;;;;;;;;5135116;27;20110;-74
2023/08/06 07:09:44;;;;;;;7.03;1.23;;;;;;;;;;5135202;27;20042;-74
2023/08/06 07:12:11;;;;;;;4.57;0.80;;;;;;;;;;5133404;27;20039;-73
2023/08/06 07:14:38;;;;;;;7.93;1.10;;;;;;;;;;5134885;27;20045;-74
2023/08/06 07:17:05;;;;;;;3.45;0.90;;;;;;;;;;5134875;27;20039;-74
2023/08/06 07:19:32;;;;;;;7.22;1.17;;;;;;;;;;5133545;27;20061;-74
2023/08/06 07:21:58;;;;;;;2.92;0.90;;;;;;;;;;5135039;27;20704;-74
2023/08/06 07:24:25;;;;;;;6.00;1.08;;;;;;;;;;5134706;27;20112;-74
2023/08/06 07:26:52;;;;;;;5.88;1.02;;;;;;;;;;5133180;27;20103;-74
2023/08/06 07:29:21;;;;;;;6.75;1.23;;;;;;;;;;5133491;27;20050;-74
2023/08/06 07:31:49;;;;;;;5.07;1.15;;;;;;;;;;5133093;27;20051;-74
2023/08/06 07:34:16;;;;;;;3.17;0.90;;;;;;;;;;5131742;27;20039;-74
2023/08/06 07:36:45;;;;;;;7.93;1.20;;;;;;;;;;5132672;27;20067;-74
2023/08/06 07:39:12;;;;;;;3.67;1.00;;;;;;;;;;5134001;27;20039;-74
2023/08/06 07:41:38;;;;;;;10.32;1.10;;;;;;;;;;5113856;27;20050;-74
2023/08/06 07:44:05;;;;;;;3.63;0.75;;;;;;;;;;5133535;27;20369;-75
2023/08/06 07:46:32;;;;;;;5.88;1.20;;;;;;;;;;5140847;27;20046;-74
2023/08/06 07:48:58;;;;;;;4.40;1.08;;;;;;;;;;5137447;27;20039;-75
2023/08/06 07:51:25;;;;;;;6.75;0.80;;;;;;;;;;5142947;27;20053;-74
2023/08/06 07:53:52;;;;;;;5.03;0.93;;;;;;;;;;5142632;27;20186;-81
2023/08/06 07:56:19;;;;;;;5.70;0.75;;;;;;;;;;5143316;27;20050;-74
2023/08/06 07:58:45;;;;;;;4.93;0.98;;;;;;;;;;5143751;27;20122;-74
2023/08/06 08:01:12;;;;;;;7.40;0.82;;;;;;;;;;5136251;27;20039;-74
2023/08/06 08:03:39;;;;;;;5.43;0.85;;;;;;;;;;5139995;27;20050;-73
2023/08/06 08:06:05;;;;;;;6.63;1.00;;;;;;;;;;5139944;27;20074;-72
2023/08/06 08:08:32;;;;;;;4.38;0.80;;;;;;;;;;5140787;27;20350;-72
2023/08/06 08:11:00;;;;;;;2.15;0.65;;;;;;;;;;5140799;27;20088;-71
2023/08/06 08:13:27;;;;;;;4.20;0.88;;;;;;;;;;5140712;27;20077;-72
2023/08/06 08:16:00;;;;;;;2.33;0.75;;;;;;;;;;5140826;27;20239;-72
2023/08/06 08:18:27;;;;;;;3.65;0.65;;;;;;;;;;5143639;27;20358;-73
2023/08/06 08:20:54;;;;;;;4.80;0.85;;;;;;;;;;5142330;27;20257;-72
2023/08/06 08:23:21;;;;;;;5.88;0.98;;;;;;;;;;5141008;27;20051;-73
2023/08/06 08:25:47;;;;;;;4.28;0.80;;;;;;;;;;5142117;27;20043;-73
2023/08/06 08:28:14;;;;;;;4.80;0.90;;;;;;;;;;5142412;27;20054;-72
2023/08/06 08:30:41;;;;;;;5.55;0.90;;;;;;;;;;5142525;27;20043;-72
2023/08/06 08:33:08;;;;;;;9.60;1.13;;;;;;;;;;5138518;27;20047;-75
2023/08/06 08:35:36;;;;;;;5.57;1.05;;;;;;;;;;5139051;27;20062;-73
2023/08/06 08:38:03;;;;;;;3.55;0.88;;;;;;;;;;5128209;27;20118;-74
2023/08/06 08:40:33;;;;;;;6.07;1.27;;;;;;;;;;5143401;27;20043;-73
2023/08/06 08:42:59;;;;;;;3.07;0.70;;;;;;;;;;5143224;27;20087;-73
2023/08/06 08:45:29;;;;;;;3.83;0.90;;;;;;;;;;5142178;27;20043;-80
2023/08/06 08:47:56;;;;;;;4.70;0.77;;;;;;;;;;5142208;27;20047;-73
2023/08/06 08:50:23;;;;;;;5.88;0.80;;;;;;;;;;5140554;27;20130;-73
2023/08/06 08:52:50;;;;;;;5.18;0.93;;;;;;;;;;5138412;27;20383;-73
2023/08/06 08:55:17;;;;;;;5.75;0.70;;;;;;;;;;5139695;27;20388;-73
2023/08/06 08:57:44;;;;;;;3.15;0.60;;;;;;;;;;5138852;27;20043;-73
2023/08/06 09:00:11;;;;;;;4.43;0.65;;;;;;;;;;5142171;27;20042;-73
2023/08/06 09:02:39;;;;;;;2.90;0.60;;;;;;;;;;5141455;27;20357;-73
2023/08/06 09:05:07;;;;;;;7.22;0.70;;;;;;;;;;5139756;27;20043;-73
2023/08/06 09:07:48;;;;;;;5.00;0.90;;;;;;;;;;5140435;27;20130;-73
2023/08/06 09:10:20;;;;;;;7.38;0.90;;;;;;;;;;5141359;27;20057;-74
2023/08/06 09:12:50;;;;;;;3.85;0.68;;;;;;;;;;5141759;27;20042;-83
2023/08/06 09:15:17;;;;;;;3.87;0.80;;;;;;;;;;5141949;27;20269;-75
2023/08/06 09:17:44;;;;;;;2.88;0.77;;;;;;;;;;5141532;27;20656;-73
2023/08/06 09:20:14;;;;;;;3.33;0.65;;;;;;;;;;5141832;27;20327;-73
2023/08/06 09:22:42;;;;;;;3.63;0.68;;;;;;;;;;5142376;27;20043;-73
2023/08/06 09:25:13;;;;;;;3.22;0.45;;;;;;;;;;5142143;27;20226;-73
2023/08/06 09:27:40;;;;;;;1.88;0.45;;;;;;;;;;5142018;27;20046;-73
2023/08/06 09:30:07;;;;;;;4.30;0.90;;;;;;;;;;5142286;27;20057;-73
2023/08/06 09:32:55;;;;;;;3.83;0.70;;;;;;;;;;5142127;27;20114;-73
2023/08/06 09:35:22;;;;;;;4.65;0.80;;;;;;;;;;5137980;27;20043;-72
2023/08/06 09:37:49;;;;;;;4.97;0.65;;;;;;;;;;5132340;27;20100;-73
2023/08/06 09:40:42;;;;;;;6.35;0.80;;;;;;;;;;5130906;27;20063;-72
2023/08/06 09:43:08;;;;;;;3.15;0.95;;;;;;;;;;5108060;27;20634;-73
2023/08/06 09:45:37;;;;;;;5.35;0.90;;;;;;;;;;5130249;27;20047;-73
2023/08/06 09:48:06;;;;;;;4.43;1.00;;;;;;;;;;5128962;27;20126;-72
2023/08/06 09:50:38;;;;;;;4.03;0.68;;;;;;;;;;5128630;27;20494;-72
2023/08/06 09:53:06;;;;;;;2.60;0.90;;;;;;;;;;5128674;27;20053;-72
2023/08/06 09:55:34;;;;;;;5.57;0.68;;;;;;;;;;5128553;27;20415;-72
2023/08/06 09:58:01;;;;;;;3.42;0.98;;;;;;;;;;5128891;27;20498;-72
2023/08/06 10:00:28;;;;;;;4.70;0.60;;;;;;;;;;5128908;27;20050;-72
2023/08/06 10:02:59;;;;;;;5.03;0.70;;;;;;;;;;5129472;28;20039;-72
2023/08/06 10:05:27;;;;;;;2.38;0.60;;;;;;;;;;5130578;28;20043;-72
2023/08/06 10:07:55;;;;;;;6.70;1.00;;;;;;;;;;5130454;28;20043;-72
2023/08/06 10:10:23;;;;;;;5.80;0.88;;;;;;;;;;5130103;28;20074;-73
2023/08/06 10:12:52;;;;;;;3.45;0.80;;;;;;;;;;5130206;28;20054;-72
2023/08/06 10:15:25;;;;;;;2.83;0.70;;;;;;;;;;5129903;28;20448;-72
2023/08/06 10:17:57;;;;;;;5.72;0.90;;;;;;;;;;5130189;28;20055;-72
2023/08/06 10:20:24;;;;;;;3.10;0.80;;;;;;;;;;5130373;28;20047;-72
2023/08/06 10:23:04;;;;;;;4.97;1.00;;;;;;;;;;5130069;28;20126;-72
2023/08/06 10:25:33;;;;;;;2.40;0.60;;;;;;;;;;5129941;28;20043;-72
2023/08/06 10:28:01;;;;;;;2.53;0.75;;;;;;;;;;5130544;28;20047;-72
2023/08/06 10:30:33;;;;;;;3.63;0.80;;;;;;;;;;5130025;28;20051;-72
2023/08/06 10:33:02;;;;;;;4.88;0.80;;;;;;;;;;5133774;27;20041;-72
2023/08/06 10:35:32;;;;;;;6.03;0.90;;;;;;;;;;5134209;27;20043;-72
2023/08/06 10:38:02;;;;;;;;;;;;;;;;;;5134484;27;20047;-72
2023/08/06 10:40:30;;;;;;;3.47;0.77;;;;;;;;;;5134141;27;20374;-72
2023/08/06 10:43:06;;;;;;;2.28;0.77;;;;;;;;;;5134234;27;20062;-72
2023/08/06 10:45:37;;;;;;;3.90;0.77;;;;;;;;;;5133865;27;20520;-72
2023/08/06 10:48:04;;;;;;;3.80;0.70;;;;;;;;;;5134344;27;20085;-72
2023/08/06 10:50:32;;;;;;;5.07;0.98;;;;;;;;;;5133692;27;20074;-72
2023/08/06 10:53:05;;;;;;;3.35;0.82;;;;;;;;;;5133785;27;20055;-73
2023/08/06 10:55:32;;;;;;;2.33;0.65;;;;;;;;;;5133384;27;20487;-72
2023/08/06 10:57:59;;;;;;;4.88;1.15;;;;;;;;;;5133849;27;20043;-72
2023/08/06 11:00:26;;;;;;;3.05;0.80;;;;;;;;;;5133502;27;20043;-72
2023/08/06 11:02:53;;;;;;;5.38;1.00;;;;;;;;;;5134007;27;20051;-72
2023/08/06 11:05:20;;;;;;;5.05;0.80;;;;;;;;;;5133412;27;20499;-72
2023/08/06 11:07:49;;;;;;;3.63;0.73;;;;;;;;;;5133950;27;20050;-72
2023/08/06 11:10:16;;;;;;;3.00;0.70;;;;;;;;;;5115627;27;20099;-73
2023/08/06 11:12:42;;;;;;;2.60;0.60;;;;;;;;;;5133802;27;20051;-72
2023/08/06 11:15:11;;;;;;;5.32;1.02;;;;;;;;;;5133150;27;20514;-72
2023/08/06 11:17:40;;;;;;;2.85;0.98;;;;;;;;;;5133486;27;20548;-72
2023/08/06 11:20:08;;;;;;;2.42;0.70;;;;;;;;;;5133268;27;20050;-72
2023/08/06 11:22:36;;;;;;;4.88;0.88;;;;;;;;;;5133834;27;20043;-72
2023/08/06 11:25:03;;;;;;;7.85;0.90;;;;;;;;;;5133016;27;20532;-72
2023/08/06 11:27:29;;;;;;;3.85;0.75;;;;;;;;;;5133337;27;20073;-72
2023/08/06 11:29:56;;;;;;;4.40;0.75;;;;;;;;;;5133122;27;20047;-72
2023/08/06 11:32:23;;;;;;;3.97;0.90;;;;;;;;;;5132849;27;20066;-72
2023/08/06 11:34:50;;;;;;;2.58;0.90;;;;;;;;;;5132986;27;20404;-73
2023/08/06 11:37:22;;;;;;;3.03;0.70;;;;;;;;;;5132622;27;20058;-72
2023/08/06 11:39:49;;;;;;;3.65;0.90;;;;;;;;;;5133047;27;20058;-72
2023/08/06 11:42:16;;;;;;;1.73;0.60;;;;;;;;;;5132920;27;20058;-72
2023/08/06 11:44:45;;;;;;;5.70;1.00;;;;;;;;;;5131995;27;20046;-72
2023/08/06 11:47:14;;;;;;;5.10;1.00;;;;;;;;;;5132699;27;20050;-72
2023/08/06 11:49:48;;;;;;;3.33;0.82;;;;;;;;;;5133122;27;20043;-73
2023/08/06 11:52:23;;;;;;;4.15;0.90;;;;;;;;;;5132581;27;20047;-73
2023/08/06 11:55:08;;;;;;;4.47;1.00;;;;;;;;;;5132941;27;20043;-72
2023/08/06 11:57:35;;;;;;;2.78;0.88;;;;;;;;;;5133061;27;20047;-72
2023/08/06 12:00:10;;;;;;;2.17;0.52;;;;;;;;;;5133079;27;20046;-72
2023/08/06 12:02:41;;;;;;;4.45;1.02;;;;;;;;;;5132652;27;20050;-72
2023/08/06 12:05:16;;;;;;;4.53;0.65;;;;;;;;;;5132651;27;20048;-73
2023/08/06 12:08:02;;;;;;;5.68;0.90;;;;;;;;;;5132241;27;20126;-72
2023/08/06 12:10:30;;;;;;;4.25;0.90;;;;;;;;;;5132227;27;20043;-72
2023/08/06 12:12:56;;;;;;;3.90;0.77;;;;;;;;;;5132389;27;20100;-72
2023/08/06 12:15:23;;;;;;;1.65;0.57;;;;;;;;;;5132216;27;20051;-72
2023/08/06 12:17:50;;;;;;;3.00;0.68;;;;;;;;;;5132161;27;20043;-72
2023/08/06 12:20:17;;;;;;;4.30;0.70;;;;;;;;;;5114206;27;20126;-72
2023/08/06 12:22:45;;;;;;;1.85;0.77;;;;;;;;;;5132187;27;20130;-72
2023/08/06 12:25:13;;;;;;;2.03;0.70;;;;;;;;;;5113993;27;20075;-72
2023/08/06 12:27:44;;;;;;;3.28;0.80;;;;;;;;;;5131811;27;20051;-72
2023/08/06 12:30:11;;;;;;;2.75;0.68;;;;;;;;;;5132044;27;20071;-72
2023/08/06 12:32:38;;;;;;;3.97;0.80;;;;;;;;;;5131802;27;20130;-72
2023/08/06 12:35:07;;;;;;;3.13;0.77;;;;;;;;;;5132341;27;20062;-72
2023/08/06 12:37:35;;;;;;;2.85;0.80;;;;;;;;;;5131914;27;20061;-73
2023/08/06 12:40:02;;;;;;;2.38;0.70;;;;;;;;;;5131911;27;20530;-72
2023/08/06 12:42:45;;;;;;;4.63;0.90;;;;;;;;;;5132150;27;20108;-72
2023/08/06 12:45:12;;;;;;;1.20;0.50;;;;;;;;;;5131630;27;20062;-72
2023/08/06 12:47:39;;;;;;;2.55;0.77;;;;;;;;;;5112960;27;20525;-72
2023/08/06 12:50:06;;;;;;;2.35;0.80;;;;;;;;;;5131809;27;20047;-72
2023/08/06 12:52:34;;;;;;;3.95;0.60;;;;;;;;;;5131471;27;20126;-72
2023/08/06 12:55:01;;;;;;;2.05;0.60;;;;;;;;;;5131083;27;20047;-72
2023/08/06 12:57:29;;;;;;;3.22;0.85;;;;;;;;;;5131692;27;20059;-72
2023/08/06 13:00:13;;;;;;;4.47;1.13;;;;;;;;;;5131857;27;20039;-72
2023/08/06 13:02:39;;;;;;;2.47;0.80;;;;;;;;;;5131313;27;20039;-72
2023/08/06 13:05:06;;;;;;;1.77;0.52;;;;;;;;;;5131266;27;20092;-72
2023/08/06 13:07:33;;;;;;;2.95;0.65;;;;;;;;;;5130953;27;20043;-72
2023/08/06 13:10:00;;;;;;;4.43;0.82;;;;;;;;;;5131203;27;20081;-72
2023/08/06 13:12:26;;;;;;;1.95;0.70;;;;;;;;;;5130977;27;20043;-72
2023/08/06 13:14:55;;;;;;;2.15;0.60;;;;;;;;;;5131328;27;20044;-72
2023/08/06 13:17:22;;;;;;;2.13;0.60;;;;;;;;;;5131187;27;20062;-72
2023/08/06 13:19:48;;;;;;;2.83;0.77;;;;;;;;;;5131215;27;20130;-72
2023/08/06 13:22:15;;;;;;;4.07;0.90;;;;;;;;;;5130573;27;20039;-72
2023/08/06 13:24:42;;;;;;;2.75;0.70;;;;;;;;;;5131048;27;20054;-72
2023/08/06 13:27:09;;;;;;;3.13;0.80;;;;;;;;;;5130577;27;20784;-72
2023/08/06 13:29:36;;;;;;;1.63;0.75;;;;;;;;;;5130812;27;20043;-72
2023/08/06 13:32:03;;;;;;;4.05;0.93;;;;;;;;;;5130601;27;20051;-72
2023/08/06 13:34:29;;;;;;;2.25;0.80;;;;;;;;;;5130975;27;20047;-72
2023/08/06 13:36:56;;;;;;;1.33;0.50;;;;;;;;;;5130622;27;20062;-72
2023/08/06 13:39:23;;;;;;;2.22;0.73;;;;;;;;;;5130839;27;20118;-72
2023/08/06 13:41:50;;;;;;;2.33;0.70;;;;;;;;;;5130752;27;20047;-72
2023/08/06 13:44:16;;;;;;;3.65;0.70;;;;;;;;;;5130712;27;20043;-73
2023/08/06 13:46:43;;;;;;;3.90;0.70;;;;;;;;;;5130648;27;20055;-72
2023/08/06 13:49:10;;;;;;;3.20;0.60;;;;;;;;;;5130824;27;20062;-73
2023/08/06 13:51:38;;;;;;;4.57;1.27;;;;;;;;;;5130519;27;20069;-72
2023/08/06 13:54:04;;;;;;;4.20;1.05;;;;;;;;;;5130239;27;20049;-73
2023/08/06 13:56:32;;;;;;;3.10;0.90;;;;;;;;;;5130602;27;20043;-72
2023/08/06 13:58:59;;;;;;;2.15;0.60;;;;;;;;;;5130626;27;20071;-72
2023/08/06 14:01:26;;;;;;;1.80;0.55;;;;;;;;;;5130737;27;20043;-72
2023/08/06 14:04:13;;;;;;;4.28;0.80;;;;;;;;;;5130661;28;20828;-72
2023/08/06 14:06:39;;;;;;;2.20;0.70;;;;;;;;;;5129295;27;20054;-72
2023/08/06 14:09:07;;;;;;;5.28;0.88;;;;;;;;;;5129910;28;20047;-73
2023/08/06 14:11:34;;;;;;;2.72;0.70;;;;;;;;;;5130594;28;20046;-72
2023/08/06 14:14:01;;;;;;;3.22;0.70;;;;;;;;;;5130564;28;20297;-72
2023/08/06 14:16:29;;;;;;;3.22;0.80;;;;;;;;;;5130443;28;20104;-73
2023/08/06 14:18:56;;;;;;;5.93;1.00;;;;;;;;;;5130128;28;20478;-72
2023/08/06 14:21:23;;;;;;;4.15;1.08;;;;;;;;;;5130553;28;20130;-73
2023/08/06 14:23:49;;;;;;;3.75;0.80;;;;;;;;;;5112256;28;20039;-72
2023/08/06 14:26:17;;;;;;;4.60;0.80;;;;;;;;;;5109426;28;20048;-73
2023/08/06 14:28:43;;;;;;;5.75;0.90;;;;;;;;;;5109341;28;20138;-72
2023/08/06 14:31:11;;;;;;;2.97;0.82;;;;;;;;;;5109722;28;20442;-72
2023/08/06 14:33:38;;;;;;;3.78;0.95;;;;;;;;;;5109496;28;20788;-72
2023/08/06 14:36:05;;;;;;;3.33;0.73;;;;;;;;;;5109553;28;20558;-72
2023/08/06 14:38:32;;;;;;;2.22;0.70;;;;;;;;;;5108322;28;20055;-72
2023/08/06 14:41:06;;;;;;;2.20;0.60;;;;;;;;;;5109723;28;20129;-72
2023/08/06 14:43:33;;;;;;;4.63;0.70;;;;;;;;;;5091552;28;20057;-72
2023/08/06 14:45:59;;;;;;;1.90;0.80;;;;;;;;;;5109252;28;20415;-72
2023/08/06 14:48:26;;;;;;;2.28;0.82;;;;;;;;;;5109557;28;20045;-72